Pays
Station

 

Conditions  météo  pour  Belize/Phillip Goldston Intl. Airport  -  Belize    Belize

  
27 °C
    
 
 

METAR pour Belize/Phillip Goldston Intl. Airport :

MZBZ 202300Z 10010KT 9999 SCT023 27/23 A2998 Q1015 NOSIG

 

Voici le bulletin pour Belize/Phillip Goldston Intl. Airport - Belize.
 
Le bulletin a été fait il y a 10 minutes, à 23:00 UTC .
Le vent soufflait à la vitesse de 5.1 mètres par seconde de Est (100°).
 
La température était de 27 °C, avec un point de rosée à 23 °C.
La température ressentie était de 30 °C.
 
La pression atmosphérique était de 1015 hPa.
L'humidité relative était de 78.8%.
 
Il y avait 3 à 4/8ème de nébulosité à une hauteur de 701 mètres.
 
La visibilité globale était de supérieure à 10 kilomètres.
 

 
 
 

Pays :   A   B   C   D   E   F   G   H   I   J   K   L   M   N   O   P   Q   R   S   T   U   V   W   Y   Z

 

Partenaires :  Info Météo avec Met'info
Météo Marine avec MeteoMarine.net
Infos Site  |  Infos Légales  |  Crédits  |  Confidentialité
Contactez-nous  |  Ajouter aux favoris
© 2013-2018 METAR - Tous droits réservés